createdAt,value
2018-07-15T00:01:17.746Z,10.90
2018-07-15T00:03:46.736Z,11.53
2018-07-15T00:06:15.896Z,10.43
2018-07-15T00:08:44.746Z,10.63
2018-07-15T00:11:13.576Z,9.83
2018-07-15T00:13:42.440Z,11.60
2018-07-15T00:16:11.273Z,10.23
2018-07-15T00:18:40.071Z,10.20
2018-07-15T00:21:08.817Z,10.80
2018-07-15T00:23:37.735Z,9.73
2018-07-15T00:26:06.573Z,11.13
2018-07-15T00:28:35.386Z,11.40
2018-07-15T00:31:04.128Z,10.33
2018-07-15T00:33:36.284Z,10.80
2018-07-15T00:36:05.264Z,10.83
2018-07-15T00:38:34.173Z,11.53
2018-07-15T00:41:03.017Z,10.43
2018-07-15T00:43:32.281Z,11.43
2018-07-15T00:46:01.112Z,11.73
2018-07-15T00:48:30.045Z,11.40
2018-07-15T00:50:59.314Z,11.63
2018-07-15T00:53:28.170Z,11.83
2018-07-15T00:55:57.046Z,12.80
2018-07-15T00:58:25.855Z,12.03
2018-07-15T01:01:00.249Z,10.80
2018-07-15T01:03:29.307Z,11.37
2018-07-15T01:05:58.117Z,9.90
2018-07-15T01:08:27.445Z,10.60
2018-07-15T01:10:56.199Z,10.80
2018-07-15T01:13:25.280Z,10.83
2018-07-15T01:15:54.012Z,9.43
2018-07-15T01:18:22.869Z,9.73
2018-07-15T01:20:51.731Z,9.73
2018-07-15T01:23:20.844Z,10.80
2018-07-15T01:25:49.761Z,9.80
2018-07-15T01:28:18.526Z,10.70
2018-07-15T01:30:47.454Z,11.17
2018-07-15T01:33:16.333Z,10.13
2018-07-15T01:35:45.413Z,11.83
2018-07-15T01:38:14.189Z,10.77
2018-07-15T01:40:43.089Z,10.40
2018-07-15T01:43:11.533Z,11.07
2018-07-15T01:45:40.502Z,10.37
2018-07-15T01:48:09.462Z,10.37
2018-07-15T01:50:38.207Z,10.97
2018-07-15T01:53:07.068Z,10.87
2018-07-15T01:55:35.813Z,9.90
2018-07-15T01:58:04.730Z,9.77
2018-07-15T02:00:33.547Z,10.33
2018-07-15T02:03:02.456Z,9.73
2018-07-15T02:05:31.456Z,10.80
2018-07-15T02:08:00.292Z,10.67
2018-07-15T02:10:29.105Z,11.87
2018-07-15T02:12:57.881Z,9.80
2018-07-15T02:15:26.692Z,9.87
2018-07-15T02:17:55.498Z,11.07
2018-07-15T02:20:24.351Z,10.27
2018-07-15T02:22:53.331Z,10.17
2018-07-15T02:25:22.187Z,11.53
2018-07-15T02:27:51.029Z,10.33
2018-07-15T02:30:19.877Z,10.70
2018-07-15T02:32:48.707Z,10.90
2018-07-15T02:35:17.576Z,10.70
2018-07-15T02:37:46.482Z,10.97
2018-07-15T02:40:15.398Z,11.30
2018-07-15T02:42:44.264Z,9.30
2018-07-15T02:45:13.144Z,10.40
2018-07-15T02:47:42.046Z,10.57
2018-07-15T02:50:10.886Z,10.58
2018-07-15T02:52:39.205Z,11.23
2018-07-15T02:55:08.289Z,10.80
2018-07-15T02:57:37.146Z,10.43
2018-07-15T03:00:06.489Z,10.93
2018-07-15T03:02:35.374Z,9.70
2018-07-15T03:05:04.286Z,9.63
2018-07-15T03:07:33.375Z,9.73
2018-07-15T03:10:02.228Z,9.07
2018-07-15T03:12:31.000Z,9.87
2018-07-15T03:14:59.890Z,10.57
2018-07-15T03:17:28.692Z,11.37
2018-07-15T03:19:57.464Z,11.20
2018-07-15T03:22:26.253Z,9.30
2018-07-15T03:24:55.139Z,10.37
2018-07-15T03:27:24.034Z,11.20
2018-07-15T03:29:52.814Z,11.80
2018-07-15T03:32:21.706Z,11.60
2018-07-15T03:34:50.664Z,9.90
2018-07-15T03:37:19.586Z,10.57
2018-07-15T03:39:48.541Z,10.77
2018-07-15T03:42:17.249Z,11.20
2018-07-15T03:44:46.099Z,11.67
2018-07-15T03:47:14.905Z,11.20
2018-07-15T03:49:43.770Z,11.73
2018-07-15T03:52:12.538Z,11.17
2018-07-15T03:54:41.400Z,11.70
2018-07-15T03:57:10.319Z,10.63
2018-07-15T03:59:38.842Z,11.37
2018-07-15T04:02:07.612Z,10.50
2018-07-15T04:04:36.742Z,11.60
2018-07-15T04:07:05.847Z,10.23
2018-07-15T04:09:34.592Z,9.30
2018-07-15T04:12:03.460Z,10.80
2018-07-15T04:14:32.417Z,10.77
2018-07-15T04:17:01.178Z,9.50
2018-07-15T04:19:29.998Z,10.27
2018-07-15T04:21:58.715Z,9.67
2018-07-15T04:24:27.766Z,10.53
2018-07-15T04:26:56.506Z,11.77
2018-07-15T04:29:25.364Z,11.57
2018-07-15T04:31:54.533Z,10.00
2018-07-15T04:34:23.490Z,9.97
2018-07-15T04:36:52.372Z,10.37
2018-07-15T04:39:21.286Z,11.67
2018-07-15T04:41:50.088Z,11.17
2018-07-15T04:44:18.930Z,10.60
2018-07-15T04:46:47.784Z,10.00
2018-07-15T04:49:16.628Z,9.00
2018-07-15T04:51:45.472Z,9.47
2018-07-15T04:54:14.664Z,8.87
2018-07-15T04:56:43.610Z,8.57
2018-07-15T04:59:12.518Z,8.43
2018-07-15T05:01:42.657Z,9.67
2018-07-15T05:04:13.016Z,8.70
2018-07-15T05:06:42.080Z,8.10
2018-07-15T05:09:10.996Z,7.72
2018-07-15T05:11:39.803Z,8.50
2018-07-15T05:14:08.995Z,8.33
2018-07-15T05:16:38.347Z,8.80
2018-07-15T05:19:07.115Z,8.43
2018-07-15T05:21:35.850Z,9.48
2018-07-15T05:24:10.786Z,11.10
2018-07-15T05:26:39.764Z,8.45
2018-07-15T05:29:08.554Z,8.40
2018-07-15T05:31:37.442Z,8.43
2018-07-15T05:34:06.276Z,7.47
2018-07-15T05:36:35.134Z,7.55
2018-07-15T05:39:05.200Z,7.62
2018-07-15T05:41:34.185Z,9.08
2018-07-15T05:44:03.124Z,9.43
2018-07-15T05:46:31.869Z,7.47
2018-07-15T05:49:00.680Z,10.48
2018-07-15T05:51:29.539Z,7.70
2018-07-15T05:53:58.411Z,9.70
2018-07-15T05:56:27.920Z,7.85
2018-07-15T05:58:57.225Z,7.50
2018-07-15T06:01:26.233Z,7.03
2018-07-15T06:03:55.282Z,7.20
2018-07-15T06:06:25.127Z,7.33
2018-07-15T06:08:54.800Z,6.25
2018-07-15T06:11:23.679Z,6.95
2018-07-15T06:13:53.771Z,6.95
2018-07-15T06:16:22.704Z,7.10
2018-07-15T06:18:52.295Z,6.17
2018-07-15T06:21:21.138Z,6.55
2018-07-15T06:23:50.041Z,8.68
2018-07-15T06:26:18.949Z,8.60
2018-07-15T06:28:47.840Z,7.58
2018-07-15T06:31:16.714Z,6.20
2018-07-15T06:33:46.657Z,7.78
2018-07-15T06:36:15.796Z,8.65
2018-07-15T06:38:44.610Z,6.47
2018-07-15T06:41:13.402Z,7.62
2018-07-15T06:43:42.297Z,7.17
2018-07-15T06:46:10.622Z,6.90
2018-07-15T06:48:39.329Z,6.50
2018-07-15T06:51:08.157Z,6.47
2018-07-15T06:53:37.143Z,9.10
2018-07-15T06:56:06.108Z,8.00
2018-07-15T06:58:35.006Z,8.83
2018-07-15T07:01:03.973Z,8.40
2018-07-15T07:03:32.890Z,7.42
2018-07-15T07:06:01.659Z,7.83
2018-07-15T07:08:30.354Z,7.40
2018-07-15T07:10:59.143Z,7.03
2018-07-15T07:13:28.052Z,8.60
2018-07-15T07:15:56.745Z,8.80
2018-07-15T07:18:25.553Z,8.08
2018-07-15T07:20:53.947Z,6.90
2018-07-15T07:23:23.011Z,6.72
2018-07-15T07:25:52.003Z,8.00
2018-07-15T07:28:20.465Z,7.72
2018-07-15T07:30:49.366Z,7.30
2018-07-15T07:33:18.262Z,9.03
2018-07-15T07:35:46.923Z,7.65
2018-07-15T07:38:15.732Z,6.90
2018-07-15T07:40:44.598Z,6.97
2018-07-15T07:43:17.132Z,7.28
2018-07-15T07:45:49.670Z,7.10
2018-07-15T07:48:18.553Z,7.78
2018-07-15T07:50:47.347Z,5.78
2018-07-15T07:53:16.101Z,5.70
2018-07-15T07:55:44.845Z,7.55
2018-07-15T07:58:21.482Z,7.75
2018-07-15T08:00:50.809Z,7.47
2018-07-15T08:03:20.103Z,5.80
2018-07-15T08:05:49.045Z,6.33
2018-07-15T08:08:17.951Z,7.40
2018-07-15T08:10:46.677Z,6.40
2018-07-15T08:13:15.587Z,7.05
2018-07-15T08:15:44.517Z,6.25
2018-07-15T08:18:16.030Z,6.58
2018-07-15T08:21:03.421Z,6.05
2018-07-15T08:23:32.279Z,6.83
2018-07-15T08:26:01.065Z,6.78
2018-07-15T08:31:45.933Z,6.05
2018-07-15T08:34:14.938Z,7.37
2018-07-15T08:36:43.943Z,4.97
2018-07-15T08:39:12.737Z,5.00
2018-07-15T08:41:41.566Z,5.42
2018-07-15T08:44:10.491Z,4.65
2018-07-15T08:46:39.231Z,5.40
2018-07-15T08:49:08.071Z,5.75
2018-07-15T08:51:36.841Z,5.03
2018-07-15T08:54:05.217Z,5.10
2018-07-15T08:56:33.968Z,5.03
2018-07-15T08:59:02.871Z,6.03
2018-07-15T09:01:32.349Z,5.62
2018-07-15T09:04:01.197Z,5.33
2018-07-15T09:06:31.052Z,6.20
2018-07-15T09:08:59.903Z,5.00
2018-07-15T09:11:28.875Z,5.10
2018-07-15T09:13:57.623Z,4.92
2018-07-15T09:16:26.451Z,5.25
2018-07-15T09:18:55.175Z,5.35
2018-07-15T09:21:24.263Z,5.12
2018-07-15T09:23:53.137Z,4.90
2018-07-15T09:26:22.033Z,4.72
2018-07-15T09:29:07.411Z,5.22
2018-07-15T09:31:36.161Z,4.90
2018-07-15T09:34:05.043Z,6.12
2018-07-15T09:36:34.795Z,5.10
2018-07-15T09:39:04.871Z,5.22
2018-07-15T09:41:33.894Z,5.00
2018-07-15T09:44:06.683Z,5.28
2018-07-15T09:46:41.119Z,4.72
2018-07-15T09:49:10.035Z,7.20
2018-07-15T09:51:39.203Z,4.20
2018-07-15T09:54:10.037Z,4.87
2018-07-15T09:56:38.954Z,5.22
2018-07-15T09:59:07.801Z,4.00
2018-07-15T10:01:36.681Z,4.40
2018-07-15T10:04:05.776Z,3.87
2018-07-15T10:06:41.655Z,3.05
2018-07-15T10:09:10.518Z,3.98
2018-07-15T10:11:39.307Z,3.65
2018-07-15T10:14:08.204Z,3.72
2018-07-15T10:16:37.074Z,3.85
2018-07-15T10:19:06.221Z,2.65
2018-07-15T10:21:35.071Z,3.33
2018-07-15T10:24:03.887Z,4.33
2018-07-15T10:26:32.861Z,3.55
2018-07-15T10:29:01.744Z,3.17
2018-07-15T10:31:36.801Z,4.03
2018-07-15T10:34:05.574Z,3.45
2018-07-15T10:36:34.396Z,3.72
2018-07-15T10:39:03.382Z,4.17
2018-07-15T10:41:32.173Z,3.22
2018-07-15T10:44:01.081Z,3.47
2018-07-15T10:46:30.101Z,4.00
2018-07-15T10:48:58.991Z,3.60
2018-07-15T10:51:27.965Z,3.72
2018-07-15T10:53:57.401Z,3.42
2018-07-15T10:56:26.585Z,3.17
2018-07-15T10:58:55.536Z,4.53
2018-07-15T11:01:24.357Z,3.50
2018-07-15T11:03:53.516Z,3.45
2018-07-15T11:06:22.465Z,3.62
2018-07-15T11:08:51.318Z,3.52
2018-07-15T11:11:20.167Z,3.72
2018-07-15T11:13:49.263Z,3.72
2018-07-15T11:16:18.342Z,2.75
2018-07-15T11:18:47.272Z,3.77
2018-07-15T11:21:16.830Z,3.80
2018-07-15T11:23:45.648Z,3.55
2018-07-15T11:26:14.762Z,3.72
2018-07-15T11:28:43.132Z,3.60
2018-07-15T11:31:12.168Z,4.40
2018-07-15T11:33:41.081Z,6.45
2018-07-15T11:36:09.981Z,5.40
2018-07-15T11:38:39.407Z,4.10
2018-07-15T11:41:08.435Z,3.72
2018-07-15T11:43:37.353Z,3.70
2018-07-15T11:46:06.435Z,4.08
2018-07-15T11:48:35.267Z,4.25
2018-07-15T11:51:04.097Z,4.15
2018-07-15T11:53:52.453Z,3.98
2018-07-15T11:56:21.291Z,4.12
2018-07-15T11:58:50.081Z,3.90
2018-07-15T12:01:18.901Z,3.58
2018-07-15T12:03:47.731Z,4.25
2018-07-15T12:06:16.596Z,3.65
2018-07-15T12:08:45.545Z,3.80
2018-07-15T12:11:14.597Z,3.87
2018-07-15T12:13:43.389Z,4.10
2018-07-15T12:16:12.471Z,3.60
2018-07-15T12:18:41.313Z,3.65
2018-07-15T12:21:16.428Z,3.75
2018-07-15T12:23:45.209Z,3.85
2018-07-15T12:26:14.130Z,3.65
2018-07-15T12:28:42.917Z,3.50
2018-07-15T12:31:11.769Z,3.67
2018-07-15T12:33:40.629Z,4.37
2018-07-15T12:36:09.471Z,4.00
2018-07-15T12:38:38.273Z,4.40
2018-07-15T12:41:07.727Z,8.00
2018-07-15T12:43:36.490Z,3.65
2018-07-15T12:46:05.592Z,4.15
2018-07-15T12:48:34.209Z,15.30
2018-07-15T12:51:03.097Z,4.17
2018-07-15T12:53:32.044Z,4.10
2018-07-15T12:56:01.104Z,3.90
2018-07-15T12:58:30.099Z,3.80
2018-07-15T13:00:58.942Z,4.10
2018-07-15T13:03:27.963Z,3.40
2018-07-15T13:05:56.867Z,4.12
2018-07-15T13:08:25.776Z,3.30
2018-07-15T13:10:54.718Z,3.50
2018-07-15T13:13:23.844Z,3.85
2018-07-15T13:15:52.835Z,4.50
2018-07-15T13:18:21.711Z,4.35
2018-07-15T13:20:50.624Z,3.87
2018-07-15T13:23:19.403Z,3.12
2018-07-15T13:25:48.367Z,3.72
2018-07-15T13:28:17.209Z,3.70
2018-07-15T13:30:49.295Z,3.90
2018-07-15T13:36:10.858Z,3.55
2018-07-15T13:38:57.822Z,3.20
2018-07-15T13:41:26.746Z,8.30
2018-07-15T13:43:55.727Z,12.58
2018-07-15T13:46:29.883Z,5.37
2018-07-15T13:48:58.739Z,7.15
2018-07-15T13:51:27.886Z,5.90
2018-07-15T13:54:02.148Z,3.50
2018-07-15T13:56:31.024Z,2.87
2018-07-15T13:58:59.806Z,3.33
2018-07-15T14:01:29.112Z,7.97
2018-07-15T14:03:57.941Z,13.55
2018-07-15T14:06:26.807Z,10.63
2018-07-15T14:08:55.845Z,3.10
2018-07-15T14:11:24.577Z,3.12
2018-07-15T14:13:53.481Z,9.43
2018-07-15T14:16:22.439Z,8.38
2018-07-15T14:18:51.201Z,4.33
2018-07-15T14:21:20.110Z,2.60
2018-07-15T14:23:48.917Z,2.90
2018-07-15T14:26:18.020Z,3.20
2018-07-15T14:28:46.846Z,3.45
2018-07-15T14:31:15.729Z,4.35
2018-07-15T14:33:44.480Z,2.98
2018-07-15T14:36:13.280Z,2.85
2018-07-15T14:38:42.048Z,2.83
2018-07-15T14:41:11.050Z,2.65
2018-07-15T14:43:40.034Z,2.60
2018-07-15T14:46:10.808Z,3.65
2018-07-15T14:48:39.728Z,3.02
2018-07-15T14:51:11.690Z,2.80
2018-07-15T14:53:40.544Z,2.95
2018-07-15T14:56:09.597Z,4.33
2018-07-15T14:58:38.622Z,2.55
2018-07-15T15:01:07.786Z,2.80
2018-07-15T15:03:36.738Z,3.77
2018-07-15T15:06:05.703Z,3.08
2018-07-15T15:08:34.426Z,2.60
2018-07-15T15:11:03.272Z,2.70
2018-07-15T15:13:32.081Z,2.47
2018-07-15T15:16:01.101Z,2.30
2018-07-15T15:18:29.884Z,2.58
2018-07-15T15:20:58.670Z,3.30
2018-07-15T15:23:27.568Z,2.52
2018-07-15T15:25:59.992Z,2.45
2018-07-15T15:28:28.790Z,2.67
2018-07-15T15:30:57.654Z,2.30
2018-07-15T15:33:26.596Z,2.00
2018-07-15T15:35:55.418Z,2.45
2018-07-15T15:38:29.766Z,2.58
2018-07-15T15:40:58.701Z,2.35
2018-07-15T15:43:27.475Z,2.08
2018-07-15T15:45:56.305Z,2.27
2018-07-15T15:48:25.055Z,2.70
2018-07-15T15:50:53.808Z,2.15
2018-07-15T15:53:22.649Z,2.22
2018-07-15T15:55:56.966Z,2.40
2018-07-15T15:58:25.890Z,2.20
2018-07-15T16:00:54.870Z,2.60
2018-07-15T16:03:24.092Z,2.35
2018-07-15T16:05:53.054Z,2.17
2018-07-15T16:08:22.045Z,2.20
2018-07-15T16:10:50.923Z,2.05
2018-07-15T16:13:19.742Z,2.50
2018-07-15T16:15:48.693Z,2.10
2018-07-15T16:18:23.190Z,4.62
2018-07-15T16:20:51.998Z,2.35
2018-07-15T16:23:20.847Z,4.12
2018-07-15T16:25:49.338Z,2.52
2018-07-15T16:28:18.461Z,3.07
2018-07-15T16:30:47.316Z,2.10
2018-07-15T16:33:16.147Z,2.57
2018-07-15T16:35:44.975Z,2.60
2018-07-15T16:38:13.688Z,2.17
2018-07-15T16:40:42.512Z,2.93
2018-07-15T16:43:11.261Z,2.70
2018-07-15T16:45:40.134Z,2.63
2018-07-15T16:48:09.031Z,2.77
2018-07-15T16:50:38.577Z,2.65
2018-07-15T16:53:07.375Z,2.50
2018-07-15T16:55:36.615Z,2.70
2018-07-15T16:58:05.512Z,2.93
2018-07-15T17:00:34.388Z,2.87
2018-07-15T17:03:02.757Z,2.60
2018-07-15T17:05:31.754Z,2.40
2018-07-15T17:08:00.670Z,2.80
2018-07-15T17:10:29.517Z,2.40
2018-07-15T17:12:58.353Z,2.80
2018-07-15T17:15:27.085Z,2.77
2018-07-15T17:17:56.482Z,2.80
2018-07-15T17:20:25.342Z,3.07
2018-07-15T17:22:54.086Z,3.60
2018-07-15T17:25:23.174Z,4.10
2018-07-15T17:27:51.928Z,5.13
2018-07-15T17:30:20.806Z,3.57
2018-07-15T17:32:49.782Z,3.80
2018-07-15T17:35:18.625Z,3.03
2018-07-15T17:37:47.496Z,3.63
2018-07-15T17:40:20.133Z,2.93
2018-07-15T17:42:48.892Z,2.80
2018-07-15T17:45:17.658Z,3.50
2018-07-15T17:47:46.389Z,3.30
2018-07-15T17:50:15.343Z,3.50
2018-07-15T17:52:44.213Z,3.20
2018-07-15T17:55:12.955Z,3.87
2018-07-15T17:57:42.223Z,3.00
2018-07-15T18:00:11.424Z,2.90
2018-07-15T18:02:41.333Z,2.97
2018-07-15T18:05:16.031Z,3.47
2018-07-15T18:07:44.824Z,3.43
2018-07-15T18:10:13.599Z,2.90
2018-07-15T18:12:45.594Z,3.00
2018-07-15T18:15:14.545Z,2.90
2018-07-15T18:17:43.404Z,2.73
2018-07-15T18:20:12.634Z,3.10
2018-07-15T18:22:41.835Z,2.87
2018-07-15T18:25:10.721Z,2.80
2018-07-15T18:27:39.710Z,2.80
2018-07-15T18:30:08.707Z,2.53
2018-07-15T18:32:37.538Z,2.50
2018-07-15T18:35:06.509Z,2.70
2018-07-15T18:37:35.426Z,2.63
2018-07-15T18:40:04.197Z,2.40
2018-07-15T18:42:32.966Z,2.70
2018-07-15T18:45:01.789Z,2.17
2018-07-15T18:47:30.693Z,2.80
2018-07-15T18:49:59.519Z,2.60
2018-07-15T18:52:28.651Z,2.50
2018-07-15T18:54:58.069Z,2.57
2018-07-15T18:57:26.936Z,2.60
2018-07-15T18:59:55.756Z,3.00
2018-07-15T19:02:24.616Z,2.50
2018-07-15T19:04:53.644Z,2.50
2018-07-15T19:07:22.515Z,3.00
2018-07-15T19:09:51.461Z,2.50
2018-07-15T19:12:20.410Z,2.53
2018-07-15T19:14:49.378Z,2.70
2018-07-15T19:17:18.205Z,2.30
2018-07-15T19:19:47.015Z,2.60
2018-07-15T19:22:15.842Z,3.00
2018-07-15T19:24:51.227Z,3.23
2018-07-15T19:27:20.117Z,2.70
2018-07-15T19:29:49.029Z,2.77
2018-07-15T19:32:17.867Z,2.67
2018-07-15T19:34:46.750Z,2.57
2018-07-15T19:37:15.582Z,2.63
2018-07-15T19:39:44.453Z,3.37
2018-07-15T19:42:13.298Z,3.00
2018-07-15T19:44:42.402Z,3.50
2018-07-15T19:47:11.827Z,4.43
2018-07-15T19:49:40.699Z,3.87
2018-07-15T19:52:09.832Z,4.40
2018-07-15T19:54:38.671Z,5.13
2018-07-15T19:57:07.742Z,5.00
2018-07-15T19:59:36.893Z,3.17
2018-07-15T20:02:05.923Z,4.30
2018-07-15T20:04:34.731Z,3.43
2018-07-15T20:07:03.557Z,4.60
2018-07-15T20:09:32.448Z,3.80
2018-07-15T20:12:01.397Z,3.37
2018-07-15T20:14:30.505Z,3.30
2018-07-15T20:16:59.539Z,3.20
2018-07-15T20:19:28.477Z,3.07
2018-07-15T20:21:57.419Z,3.97
2018-07-15T20:24:26.333Z,3.13
2018-07-15T20:26:55.414Z,3.27
2018-07-15T20:29:24.283Z,3.27
2018-07-15T20:31:53.259Z,3.87
2018-07-15T20:34:22.342Z,4.43
2018-07-15T20:36:51.182Z,5.07
2018-07-15T20:39:20.070Z,4.10
2018-07-15T20:41:48.874Z,4.97
2018-07-15T20:44:17.653Z,4.57
2018-07-15T20:46:46.667Z,5.30
2018-07-15T20:49:15.442Z,4.60
2018-07-15T20:51:44.391Z,4.80
2018-07-15T20:54:13.223Z,4.17
2018-07-15T20:56:42.509Z,5.03
2018-07-15T20:59:11.309Z,4.23
2018-07-15T21:01:40.219Z,4.00
2018-07-15T21:04:09.163Z,3.80
2018-07-15T21:06:43.395Z,3.97
2018-07-15T21:09:12.432Z,4.07
2018-07-15T21:11:41.247Z,4.30
2018-07-15T21:14:10.171Z,4.50
2018-07-15T21:16:49.221Z,5.83
2018-07-15T21:19:18.401Z,5.50
2018-07-15T21:21:47.297Z,4.67
2018-07-15T21:24:16.482Z,4.23
2018-07-15T21:26:45.330Z,4.23
2018-07-15T21:29:14.248Z,5.20
2018-07-15T21:31:43.075Z,4.43
2018-07-15T21:34:12.036Z,4.37
2018-07-15T21:36:40.979Z,4.67
2018-07-15T21:39:10.599Z,4.10
2018-07-15T21:41:39.582Z,4.23
2018-07-15T21:44:08.467Z,4.20
2018-07-15T21:46:37.357Z,4.27
2018-07-15T21:49:06.271Z,5.53
2018-07-15T21:51:35.124Z,4.93
2018-07-15T21:54:04.300Z,4.90
2018-07-15T21:56:33.151Z,4.70
2018-07-15T21:59:02.014Z,4.60
2018-07-15T22:01:38.727Z,7.77
2018-07-15T22:04:08.271Z,4.53
2018-07-15T22:06:48.225Z,4.30
2018-07-15T22:09:29.137Z,5.00
2018-07-15T22:11:59.271Z,5.20
2018-07-15T22:14:28.121Z,7.07
2018-07-15T22:16:57.047Z,5.77
2018-07-15T22:19:25.929Z,7.20
2018-07-15T22:21:54.773Z,5.47
2018-07-15T22:24:23.587Z,6.23
2018-07-15T22:26:52.423Z,5.37
2018-07-15T22:29:27.389Z,5.40
2018-07-15T22:31:56.153Z,5.22
2018-07-15T22:34:25.108Z,5.57
2018-07-15T22:36:53.971Z,4.97
2018-07-15T22:39:22.927Z,5.20
2018-07-15T22:41:51.857Z,5.57
2018-07-15T22:44:20.718Z,4.93
2018-07-15T22:46:49.554Z,4.77
2018-07-15T22:49:18.710Z,5.03
2018-07-15T22:51:47.559Z,5.77
2018-07-15T22:54:16.323Z,5.60
2018-07-15T22:56:45.104Z,5.07
2018-07-15T22:59:14.028Z,4.70
2018-07-15T23:01:42.891Z,5.80
2018-07-15T23:04:11.784Z,5.10
2018-07-15T23:06:40.547Z,7.03
2018-07-15T23:09:10.419Z,7.30
2018-07-15T23:11:39.273Z,6.40
2018-07-15T23:14:08.108Z,5.97
2018-07-15T23:16:36.989Z,5.77
2018-07-15T23:19:05.821Z,5.80
2018-07-15T23:21:34.812Z,5.80
2018-07-15T23:24:03.525Z,5.37
2018-07-15T23:26:32.318Z,6.13
2018-07-15T23:29:01.165Z,5.87
2018-07-15T23:31:30.141Z,5.73
2018-07-15T23:33:58.928Z,6.60
2018-07-15T23:36:28.049Z,6.50
2018-07-15T23:38:56.787Z,5.37
2018-07-15T23:41:25.696Z,6.67
2018-07-15T23:44:02.019Z,6.70
2018-07-15T23:46:30.904Z,6.07
2018-07-15T23:48:59.739Z,5.90
2018-07-15T23:51:28.527Z,5.37
2018-07-15T23:53:57.569Z,5.50
2018-07-15T23:56:26.384Z,5.73
2018-07-15T23:58:55.067Z,5.70
